Martinsville, Virginia
Current Conditions -  °F | °C
As of 4:35 PM on Wednesday 17 Dec 2014 (Local Time) from KMTV Reporting Station
Clear Clear  
Wind Chill: 54°   Ceiling: Unl
Heat Index: 54°   Visibility: 10mi
Dew Point: 29°   Wind: 3mph
Humidity: 39%   Direction: 280°W
Pressure: 30.06"   Gusts: NA
Location:  36.69°N, 79.87°W
Report Text: KMTV 172135Z AUTO 28003KT 10SM CLR 12/M01 A3006 RMK AO2 T01211015
Loading
Personal Weather Stations






























Interactive Weather Map New forecast layout! Learn more

10-Day Weather Forecast

Advertisements
Track Severe Weather on mobile